Time;durP1;ratioP1;P1;durP2;ratioP2;P2;SDS_P1;SDS_P2;PMS_P1;PMS_P2;Temp;Humidity;BMP_temperature;BMP_pressure;BME280_temperature;BME280_humidity;BME280_pressure;Samples;Min_cycle;Max_cycle;Signal;HPM_P1;HPM_P2
2022/05/30 00:00:16;;;;;;;5.70;3.28;;;12.50;99.90;;;;;;4969265;28;20042;-84
2022/05/30 00:02:41;;;;;;;9.82;3.88;;;12.50;99.90;;;;;;4972721;28;20079;-84
2022/05/30 00:05:08;;;;;;;6.35;4.30;;;12.50;99.90;;;;;;4969115;29;20046;-87
2022/05/30 00:07:36;;;;;;;10.98;3.90;;;12.40;99.90;;;;;;4968267;29;20236;-87
2022/05/30 00:10:03;;;;;;;5.95;3.90;;;12.50;99.90;;;;;;4969352;28;20044;-86
2022/05/30 00:12:29;;;;;;;6.65;4.43;;;12.50;99.90;;;;;;4969071;29;20023;-84
2022/05/30 00:14:55;;;;;;;8.02;3.90;;;12.50;99.90;;;;;;4978081;28;20027;-83
2022/05/30 00:17:20;;;;;;;6.13;4.20;;;12.50;99.90;;;;;;4972469;28;20035;-86
2022/05/30 00:19:46;;;;;;;5.15;4.25;;;12.50;99.90;;;;;;4978939;28;20035;-88
2022/05/30 00:22:14;;;;;;;7.47;4.22;;;12.40;99.90;;;;;;4968433;28;20034;-88
2022/05/30 00:24:41;;;;;;;5.22;3.80;;;12.40;99.90;;;;;;4966295;29;20046;-88
2022/05/30 00:27:09;;;;;;;6.40;3.78;;;12.40;99.90;;;;;;4968571;28;20043;-86
2022/05/30 00:29:35;;;;;;;4.82;3.60;;;12.40;99.90;;;;;;4950830;29;20117;-86
2022/05/30 00:32:01;;;;;;;14.43;4.63;;;12.40;99.90;;;;;;4968067;28;20443;-85
2022/05/30 00:34:27;;;;;;;6.28;3.78;;;12.40;99.90;;;;;;4971252;28;20038;-86
2022/05/30 00:36:53;;;;;;;6.32;4.03;;;12.40;99.90;;;;;;4967185;29;20023;-87
2022/05/30 00:39:19;;;;;;;7.57;4.32;;;12.30;99.90;;;;;;4982945;28;20043;-85
2022/05/30 00:41:45;;;;;;;6.43;4.13;;;12.30;99.90;;;;;;4973598;28;20043;-86
2022/05/30 00:44:12;;;;;;;6.38;3.35;;;12.40;99.90;;;;;;4977277;28;20041;-83
2022/05/30 00:46:38;;;;;;;6.28;3.83;;;12.40;99.90;;;;;;4978746;28;20080;-85
2022/05/30 00:49:07;;;;;;;4.97;3.30;;;12.40;99.90;;;;;;4978602;28;20035;-84
2022/05/30 00:51:52;;;;;;;9.45;3.53;;;12.40;99.90;;;;;;4978020;29;20027;-86
2022/05/30 00:54:28;;;;;;;6.25;3.50;;;12.40;99.90;;;;;;4977063;29;20034;-86
2022/05/30 00:56:57;;;;;;;7.22;3.03;;;12.30;99.90;;;;;;4976453;28;20031;-85
2022/05/30 00:59:23;;;;;;;4.53;3.15;;;12.40;99.90;;;;;;4973988;28;20095;-86
2022/05/30 01:01:49;;;;;;;3.03;2.30;;;12.40;99.90;;;;;;4971217;29;20042;-87
2022/05/30 01:07:09;;;;;;;5.35;2.45;;;12.40;99.90;;;;;;4969823;29;20031;-87
2022/05/30 01:09:44;;;;;;;4.68;2.42;;;12.50;99.90;;;;;;4966630;29;20035;-86
2022/05/30 01:12:12;;;;;;;5.55;2.58;;;12.50;99.90;;;;;;4965869;29;20095;-84
2022/05/30 01:14:41;;;;;;;3.92;2.40;;;12.50;99.90;;;;;;4968692;29;20027;-83
2022/05/30 01:17:14;;;;;;;3.63;2.55;;;12.40;99.90;;;;;;4968478;28;20038;-87
2022/05/30 01:22:55;;;;;;;3.38;2.30;;;12.40;99.90;;;;;;4975729;28;20039;-84
2022/05/30 01:25:34;;;;;;;4.75;2.33;;;12.40;99.90;;;;;;4888068;29;20041;-85
2022/05/30 01:28:52;;;;;;;3.90;2.10;;;12.40;99.90;;;;;;4960950;28;20031;-84
2022/05/30 01:31:17;;;;;;;5.05;1.70;;;12.30;99.90;;;;;;4960797;28;20135;-85
2022/05/30 01:33:43;;;;;;;3.22;1.92;;;12.40;99.90;;;;;;4975819;28;20031;-82
2022/05/30 01:36:10;;;;;;;2.70;2.20;;;12.40;99.90;;;;;;4936597;29;20040;-83
2022/05/30 01:38:36;;;;;;;2.38;1.60;;;12.40;99.90;;;;;;4950758;29;20064;-83
2022/05/30 01:41:04;;;;;;;2.33;1.52;;;12.40;99.90;;;;;;4970377;28;20111;-83
2022/05/30 01:43:31;;;;;;;1.70;1.60;;;12.40;99.90;;;;;;4956608;29;20023;-81
2022/05/30 01:46:09;;;;;;;2.33;1.50;;;12.40;99.90;;;;;;4956403;29;20024;-86
2022/05/30 01:48:40;;;;;;;4.13;1.88;;;12.30;99.90;;;;;;4970105;29;20063;-83
2022/05/30 01:51:06;;;;;;;2.67;1.90;;;12.30;99.90;;;;;;4943403;29;20035;-82
2022/05/30 01:53:32;;;;;;;2.50;1.55;;;12.30;99.90;;;;;;4958838;29;20027;-83
2022/05/30 01:56:19;;;;;;;2.92;1.70;;;12.30;99.90;;;;;;4944865;29;20126;-84
2022/05/30 01:58:45;;;;;;;3.45;1.50;;;12.20;99.90;;;;;;4942280;29;20035;-82
2022/05/30 02:01:29;;;;;;;3.17;1.50;;;12.30;99.90;;;;;;4941133;29;20122;-84
2022/05/30 02:03:58;;;;;;;1.92;1.55;;;12.20;99.90;;;;;;4941120;29;20031;-83
2022/05/30 02:06:26;;;;;;;3.25;1.80;;;12.20;99.90;;;;;;4956478;29;20059;-82
2022/05/30 02:08:53;;;;;;;1.85;1.40;;;12.20;99.90;;;;;;4940280;29;20380;-82
2022/05/30 02:11:24;;;;;;;2.40;1.50;;;12.20;99.90;;;;;;4943961;29;20059;-84
2022/05/30 02:13:55;;;;;;;3.03;1.60;;;12.20;99.90;;;;;;4955277;29;20040;-80
2022/05/30 02:19:20;;;;;;;2.38;1.42;;;12.20;99.90;;;;;;4949473;29;20043;-84
2022/05/30 02:21:47;;;;;;;1.98;1.40;;;12.20;99.90;;;;;;4959958;28;20036;-84
2022/05/30 02:24:13;;;;;;;1.75;1.35;;;12.20;99.90;;;;;;4962871;29;20036;-83
2022/05/30 02:26:38;;;;;;;2.20;1.40;;;12.20;99.90;;;;;;4942220;29;20028;-84
2022/05/30 02:29:07;;;;;;;2.10;1.48;;;12.10;99.90;;;;;;4941038;29;20562;-83
2022/05/30 02:31:34;;;;;;;2.80;1.40;;;12.10;99.90;;;;;;4955694;28;20046;-83
2022/05/30 02:36:45;;;;;;;1.92;1.27;;;12.00;99.90;;;;;;4939366;29;20028;-83
2022/05/30 02:39:18;;;;;;;1.73;1.40;;;12.00;99.90;;;;;;4924638;29;20459;-84
2022/05/30 02:42:04;;;;;;;3.28;1.30;;;11.90;99.90;;;;;;4942105;29;20051;-84
2022/05/30 02:44:33;;;;;;;1.80;1.38;;;11.90;99.90;;;;;;4953806;29;20488;-82
2022/05/30 02:46:59;;;;;;;2.15;1.70;;;11.80;99.90;;;;;;4940151;29;20503;-83
2022/05/30 02:49:27;;;;;;;2.33;1.60;;;11.80;99.90;;;;;;4942869;29;20054;-83
2022/05/30 02:51:55;;;;;;;4.85;1.60;;;11.80;99.90;;;;;;4943586;29;20122;-82
2022/05/30 02:54:22;;;;;;;3.33;1.48;;;11.70;99.90;;;;;;4939176;29;20063;-81
2022/05/30 02:57:14;;;;;;;5.20;1.77;;;11.70;99.90;;;;;;4955945;29;20035;-81
2022/05/30 02:59:41;;;;;;;1.80;1.58;;;11.60;99.90;;;;;;4949064;29;20028;-84
2022/05/30 03:02:08;;;;;;;2.22;2.03;;;11.60;99.90;;;;;;4948111;29;20078;-82
2022/05/30 03:04:34;;;;;;;2.13;1.70;;;11.60;99.90;;;;;;4965320;29;20031;-82
2022/05/30 03:07:05;;;;;;;3.40;1.83;;;11.50;99.90;;;;;;4947156;29;20023;-83
2022/05/30 03:09:31;;;;;;;3.78;1.60;;;11.50;99.90;;;;;;4949885;29;20074;-84
2022/05/30 03:12:11;;;;;;;3.08;1.80;;;11.40;99.90;;;;;;4950970;29;20055;-83
2022/05/30 03:14:37;;;;;;;2.95;2.25;;;11.40;99.90;;;;;;4950417;29;20130;-83
2022/05/30 03:17:03;;;;;;;2.50;1.67;;;11.40;99.90;;;;;;4946356;29;20028;-83
2022/05/30 03:19:31;;;;;;;4.20;1.50;;;11.40;99.90;;;;;;4941289;29;20046;-82
2022/05/30 03:21:58;;;;;;;2.97;1.92;;;11.30;99.90;;;;;;4953084;29;20346;-83
2022/05/30 03:24:24;;;;;;;2.08;1.70;;;11.30;99.90;;;;;;4961803;29;20078;-83
2022/05/30 03:26:50;;;;;;;1.92;1.58;;;11.30;99.90;;;;;;4928792;29;20035;-83
2022/05/30 03:29:19;;;;;;;1.80;1.50;;;11.30;99.90;;;;;;4943015;29;20384;-83
2022/05/30 03:31:47;;;;;;;3.83;2.00;;;11.30;99.90;;;;;;4942129;29;20035;-82
2022/05/30 03:34:13;;;;;;;3.28;1.73;;;11.30;99.90;;;;;;4957846;29;20031;-84
2022/05/30 03:36:39;;;;;;;3.13;1.40;;;11.30;99.90;;;;;;4927677;29;20032;-84
2022/05/30 03:39:30;;;;;;;3.30;1.83;;;11.30;99.90;;;;;;4959062;29;20118;-83
2022/05/30 03:41:58;;;;;;;2.22;1.50;;;11.30;99.90;;;;;;4943973;29;20515;-82
2022/05/30 03:44:33;;;;;;;2.25;1.95;;;11.30;99.90;;;;;;4943290;29;20028;-82
2022/05/30 03:46:59;;;;;;;2.97;1.80;;;11.30;99.90;;;;;;4948081;29;20052;-82
2022/05/30 03:49:25;;;;;;;3.05;1.77;;;11.40;99.90;;;;;;4960734;28;20063;-83
2022/05/30 03:51:51;;;;;;;2.10;1.30;;;11.40;99.90;;;;;;4961805;29;20063;-81
2022/05/30 03:54:17;;;;;;;2.47;1.73;;;11.50;99.90;;;;;;4975446;28;20032;-83
2022/05/30 03:56:43;;;;;;;4.05;1.75;;;11.50;99.90;;;;;;4959479;29;20040;-83
2022/05/30 03:59:09;;;;;;;3.20;1.70;;;11.50;99.90;;;;;;4977100;28;20015;-83
2022/05/30 04:01:34;;;;;;;3.35;1.67;;;11.60;99.90;;;;;;4978036;28;20036;-83
2022/05/30 04:04:00;;;;;;;2.45;1.42;;;11.60;99.90;;;;;;4961956;28;20019;-84
2022/05/30 04:06:27;;;;;;;4.15;1.50;;;11.60;99.90;;;;;;4962484;28;20024;-84
2022/05/30 04:08:54;;;;;;;1.52;1.15;;;11.60;99.90;;;;;;4961749;28;20011;-84
2022/05/30 04:11:56;;;;;;;1.50;1.20;;;11.60;99.90;;;;;;4953145;28;20059;-84
2022/05/30 04:14:40;;;;;;;4.95;1.35;;;11.50;99.90;;;;;;4960630;28;20042;-85
2022/05/30 04:17:13;;;;;;;3.42;1.42;;;11.50;99.90;;;;;;4976055;28;20036;-85
2022/05/30 04:19:38;;;;;;;2.67;1.60;;;11.40;99.90;;;;;;4968781;29;20089;-83
2022/05/30 04:22:05;;;;;;;8.63;1.75;;;11.40;99.90;;;;;;4935805;29;20032;-84
2022/05/30 04:24:41;;;;;;;7.13;1.52;;;11.40;99.90;;;;;;4950677;29;20038;-84
2022/05/30 04:27:08;;;;;;;3.35;1.30;;;11.50;99.90;;;;;;4946546;29;20035;-83
2022/05/30 04:29:34;;;;;;;3.20;1.73;;;11.50;99.90;;;;;;4944058;29;20519;-84
2022/05/30 04:32:13;;;;;;;4.22;1.70;;;11.60;99.90;;;;;;4942963;29;20122;-84
2022/05/30 04:34:38;;;;;;;2.25;1.48;;;11.70;99.90;;;;;;4945011;29;20069;-86
2022/05/30 04:37:05;;;;;;;9.40;2.08;;;11.60;99.90;;;;;;4959714;29;20064;-83
2022/05/30 04:39:31;;;;;;;8.60;2.75;;;11.60;99.90;;;;;;4964716;29;20036;-84
2022/05/30 04:42:11;;;;;;;4.25;3.35;;;11.60;99.90;;;;;;4950331;29;20059;-84
2022/05/30 04:44:56;;;;;;;3.20;2.33;;;11.80;99.90;;;;;;4952048;29;20136;-86
2022/05/30 04:47:57;;;;;;;6.00;2.60;;;12.10;99.90;;;;;;4942479;29;20435;-85
2022/05/30 04:50:24;;;;;;;4.25;2.30;;;12.30;99.90;;;;;;4922525;29;20042;-83
2022/05/30 04:52:50;;;;;;;5.97;2.33;;;12.40;99.90;;;;;;4944226;29;20031;-83
2022/05/30 04:55:36;;;;;;;5.40;2.17;;;12.30;99.90;;;;;;4942764;29;20035;-84
2022/05/30 04:58:04;;;;;;;4.70;2.10;;;12.30;99.90;;;;;;4944160;29;20036;-84
2022/05/30 05:01:07;;;;;;;6.43;2.65;;;12.20;99.90;;;;;;4958885;28;20398;-84
2022/05/30 05:03:33;;;;;;;4.22;2.28;;;12.40;99.90;;;;;;4926995;29;20031;-86
2022/05/30 05:06:13;;;;;;;2.47;2.03;;;12.60;99.90;;;;;;4949311;28;20016;-84
2022/05/30 05:08:51;;;;;;;4.13;1.85;;;13.10;99.90;;;;;;4941715;29;20040;-85
2022/05/30 05:11:37;;;;;;;4.35;1.90;;;13.30;99.90;;;;;;4948758;29;20114;-84
2022/05/30 05:14:21;;;;;;;3.63;1.98;;;13.60;99.90;;;;;;4948297;29;20107;-84
2022/05/30 05:17:07;;;;;;;;;;;13.60;99.90;;;;;;4961237;28;20034;-87
2022/05/30 05:19:33;;;;;;;3.10;1.75;;;13.80;99.90;;;;;;4927457;29;19919;-86
2022/05/30 05:21:59;;;;;;;3.88;1.80;;;13.90;99.90;;;;;;4958198;28;20031;-87
2022/05/30 05:24:25;;;;;;;5.15;1.55;;;14.00;99.90;;;;;;4960112;28;20055;-86
2022/05/30 05:27:10;;;;;;;1.83;1.13;;;14.20;99.90;;;;;;4952747;29;20038;-85
2022/05/30 05:29:38;;;;;;;4.75;1.48;;;14.20;99.90;;;;;;4927639;29;20119;-86
2022/05/30 05:32:06;;;;;;;3.67;1.90;;;13.90;99.90;;;;;;4949669;29;20070;-85
2022/05/30 05:34:32;;;;;;;2.22;1.30;;;13.90;99.90;;;;;;4955997;29;20056;-82
2022/05/30 05:36:57;;;;;;;3.97;1.73;;;14.10;99.90;;;;;;4961505;29;20039;-82
2022/05/30 05:39:25;;;;;;;2.97;1.25;;;14.30;99.90;;;;;;4942095;29;20039;-83
2022/05/30 05:41:56;;;;;;;2.38;1.30;;;14.50;99.90;;;;;;4944581;29;20016;-84
2022/05/30 05:44:22;;;;;;;4.07;1.67;;;14.50;99.90;;;;;;4943276;29;20543;-85
2022/05/30 05:46:48;;;;;;;2.75;1.40;;;14.50;99.90;;;;;;4948453;29;20032;-85
2022/05/30 05:49:16;;;;;;;2.40;1.75;;;14.60;99.90;;;;;;4952124;29;20122;-83
2022/05/30 05:51:42;;;;;;;8.77;3.40;;;14.90;99.90;;;;;;4959766;29;20026;-84
2022/05/30 05:54:11;;;;;;;3.92;2.65;;;14.90;99.90;;;;;;4963037;29;20027;-86
2022/05/30 05:56:37;;;;;;;3.35;2.55;;;14.90;99.90;;;;;;4947994;29;20026;-83
2022/05/30 05:59:10;;;;;;;10.35;2.83;;;14.60;99.90;;;;;;4960961;29;20065;-85
2022/05/30 06:01:35;;;;;;;5.80;2.30;;;14.10;99.90;;;;;;4964240;29;20039;-82
2022/05/30 06:04:05;;;;;;;6.10;2.40;;;13.90;99.90;;;;;;4957890;29;20611;-84
2022/05/30 06:07:01;;;;;;;4.40;1.70;;;13.90;99.90;;;;;;4952581;29;20027;-84
2022/05/30 06:09:36;;;;;;;7.53;1.80;;;14.00;99.90;;;;;;4952879;29;20724;-86
2022/05/30 06:12:10;;;;;;;3.60;1.85;;;14.20;99.90;;;;;;4970509;28;20023;-84
2022/05/30 06:14:38;;;;;;;6.97;1.58;;;14.50;99.90;;;;;;4953661;29;20031;-82
2022/05/30 06:17:04;;;;;;;4.20;2.50;;;14.60;99.90;;;;;;4954162;29;20019;-86
2022/05/30 06:19:32;;;;;;;3.00;1.77;;;15.00;99.90;;;;;;4959076;28;20106;-85
2022/05/30 06:21:58;;;;;;;8.30;1.83;;;15.10;99.90;;;;;;4953954;29;20050;-84
2022/05/30 06:24:24;;;;;;;2.65;1.90;;;15.30;99.90;;;;;;4956910;29;20051;-85
2022/05/30 06:27:10;;;;;;;3.60;2.17;;;15.00;99.90;;;;;;4951550;29;20067;-84
2022/05/30 06:29:58;;;;;;;2.75;1.70;;;14.20;99.90;;;;;;4947997;29;20052;-86
2022/05/30 06:32:25;;;;;;;3.15;2.17;;;14.00;99.90;;;;;;4954328;29;20019;-82
2022/05/30 06:35:02;;;;;;;3.40;2.33;;;14.20;99.90;;;;;;4952264;29;20495;-84
2022/05/30 06:37:27;;;;;;;6.90;2.83;;;14.20;99.90;;;;;;4954820;29;20092;-86
2022/05/30 06:39:55;;;;;;;13.23;6.38;;;14.20;99.90;;;;;;4955439;28;20019;-83
2022/05/30 06:42:53;;;;;;;3.97;1.90;;;14.20;99.90;;;;;;4948376;28;20058;-84
2022/05/30 06:45:25;;;;;;;3.42;1.83;;;14.40;99.90;;;;;;4960683;29;20027;-83
2022/05/30 06:48:10;;;;;;;5.90;2.30;;;14.60;99.90;;;;;;4961464;29;20070;-85
2022/05/30 06:50:48;;;;;;;2.67;2.15;;;14.80;99.90;;;;;;4955402;28;20122;-85
2022/05/30 06:53:13;;;;;;;2.65;1.70;;;14.80;99.90;;;;;;4941979;29;20036;-85
2022/05/30 06:55:39;;;;;;;3.33;1.80;;;15.20;99.90;;;;;;4944618;29;20079;-84
2022/05/30 06:58:14;;;;;;;4.43;1.90;;;15.40;99.90;;;;;;4952554;29;20518;-84
2022/05/30 07:00:47;;;;;;;2.33;1.60;;;15.70;99.90;;;;;;4924012;29;20055;-86
2022/05/30 07:03:37;;;;;;;2.17;1.60;;;15.50;99.90;;;;;;4948897;29;20036;-82
2022/05/30 07:06:27;;;;;;;5.13;1.95;;;15.50;99.90;;;;;;4948380;29;20682;-85
2022/05/30 07:09:15;;;;;;;3.92;1.90;;;15.30;99.90;;;;;;4909904;29;20060;-85
2022/05/30 07:11:49;;;;;;;4.55;2.17;;;14.80;99.90;;;;;;4929745;29;20047;-83
2022/05/30 07:14:16;;;;;;;3.92;2.10;;;15.00;99.90;;;;;;4927491;29;20039;-83
2022/05/30 07:16:43;;;;;;;2.40;2.20;;;15.10;99.90;;;;;;4963594;28;20027;-85
2022/05/30 07:19:09;;;;;;;4.68;2.53;;;15.10;99.90;;;;;;4976140;29;20035;-85
2022/05/30 07:21:41;;;;;;;6.65;3.30;;;14.80;99.90;;;;;;5007615;23;20043;-88
2022/05/30 07:24:26;;;;;;;;;;;14.50;99.90;;;;;;4954933;29;20046;-88
2022/05/30 07:27:10;;;;;;;4.45;1.83;;;14.50;99.90;;;;;;4950957;29;19917;-88
2022/05/30 07:29:55;;;;;;;3.83;2.25;;;14.80;99.90;;;;;;4952649;29;20043;-88
2022/05/30 07:32:40;;;;;;;4.55;2.10;;;15.00;99.90;;;;;;4941431;29;20038;-88
2022/05/30 07:35:24;;;;;;;4.50;2.70;;;15.00;99.90;;;;;;4953068;29;20560;-86
2022/05/30 07:38:28;;;;;;;2.80;1.60;;;15.30;99.90;;;;;;4912675;29;20037;-87
2022/05/30 07:41:12;;;;;;;3.72;1.60;;;15.50;99.90;;;;;;4931480;29;20393;-89
2022/05/30 07:44:01;;;;;;;2.70;1.63;;;15.60;99.90;;;;;;4930457;29;20040;-89
2022/05/30 07:46:49;;;;;;;6.05;3.78;;;15.70;99.90;;;;;;4932367;29;20028;-89
2022/05/30 07:49:35;;;;;;;6.30;1.65;;;15.80;99.90;;;;;;4932982;29;20108;-88
2022/05/30 07:52:21;;;;;;;6.18;1.52;;;15.80;99.90;;;;;;4922848;29;20032;-88
2022/05/30 07:55:06;;;;;;;4.25;1.70;;;15.60;99.90;;;;;;4939140;29;20035;-87
2022/05/30 07:57:54;;;;;;;4.10;2.05;;;15.90;99.90;;;;;;4954789;29;20024;-88
2022/05/30 08:00:29;;;;;;;4.82;2.67;;;16.00;99.90;;;;;;4948377;29;20036;-88
2022/05/30 08:03:05;;;;;;;2.42;1.65;;;16.30;99.90;;;;;;4921836;29;20012;-88
2022/05/30 08:05:32;;;;;;;33.45;13.30;;;16.50;99.90;;;;;;4934614;29;20087;-88
2022/05/30 08:08:15;;;;;;;8.63;3.22;;;16.60;99.90;;;;;;4928462;29;20076;-88
2022/05/30 08:10:47;;;;;;;4.85;1.77;;;16.80;99.90;;;;;;4949020;29;20096;-87
2022/05/30 08:13:13;;;;;;;3.10;1.70;;;16.80;99.90;;;;;;4952853;29;20036;-88
2022/05/30 08:15:41;;;;;;;2.95;1.80;;;16.90;99.90;;;;;;4948547;29;20024;-88
2022/05/30 08:18:28;;;;;;;2.83;1.63;;;17.00;99.90;;;;;;4955026;29;20058;-89
2022/05/30 08:20:58;;;;;;;2.80;1.70;;;16.90;99.90;;;;;;4942078;29;20048;-88
2022/05/30 08:23:27;;;;;;;2.85;1.55;;;17.00;99.90;;;;;;4961688;29;20032;-89
2022/05/30 08:25:56;;;;;;;2.92;1.92;;;17.20;99.90;;;;;;4959998;29;20031;-88
2022/05/30 08:28:25;;;;;;;2.65;1.60;;;17.30;99.90;;;;;;4971437;29;20028;-90
2022/05/30 08:30:51;;;;;;;3.42;1.70;;;17.30;99.90;;;;;;4969581;29;20037;-89
2022/05/30 08:33:40;;;;;;;4.78;1.70;;;17.60;99.90;;;;;;4930194;29;20056;-89
2022/05/30 08:36:09;;;;;;;2.50;1.42;;;17.70;99.90;;;;;;4946460;29;20035;-90
2022/05/30 08:38:37;;;;;;;1.95;1.38;;;17.50;99.90;;;;;;4947072;29;20020;-91
2022/05/30 08:44:01;;;;;;;2.83;1.45;;;17.80;99.50;;;;;;4939352;29;19911;-87
2022/05/30 08:46:57;;;;;;;2.25;1.40;;;17.90;99.20;;;;;;4941479;29;20095;-87
2022/05/30 08:49:43;;;;;;;1.85;1.20;;;18.10;99.00;;;;;;4940719;29;20023;-89
2022/05/30 08:52:09;;;;;;;3.33;1.80;;;18.00;98.90;;;;;;4972689;29;20034;-88
2022/05/30 08:54:58;;;;;;;1.88;1.27;;;18.30;98.70;;;;;;4973108;28;20051;-88
2022/05/30 08:57:52;;;;;;;1.70;1.60;;;18.40;98.00;;;;;;4958998;29;20046;-89
2022/05/30 09:00:38;;;;;;;1.67;1.20;;;18.70;97.50;;;;;;4974505;28;20086;-87
2022/05/30 09:04:08;;;;;;;2.05;1.20;;;18.80;97.40;;;;;;4960276;29;20058;-88
2022/05/30 09:06:47;;;;;;;1.95;1.25;;;19.10;97.10;;;;;;4972934;28;20063;-89
2022/05/30 09:09:48;;;;;;;;;;;19.10;96.80;;;;;;4953956;29;20043;-88
2022/05/30 09:13:00;;;;;;;3.13;1.48;;;18.90;97.10;;;;;;4920539;29;19923;-89
2022/05/30 09:15:58;;;;;;;2.45;1.50;;;18.90;96.80;;;;;;4972984;28;20113;-88
2022/05/30 09:18:33;;;;;;;3.15;1.40;;;18.90;96.60;;;;;;4955515;29;20027;-90
2022/05/30 09:21:02;;;;;;;4.07;1.30;;;19.20;96.20;;;;;;4972170;29;20043;-89
2022/05/30 09:23:28;;;;;;;6.13;2.22;;;19.40;96.20;;;;;;4972230;29;20031;-89
2022/05/30 09:26:03;;;;;;;4.03;1.60;;;19.50;95.40;;;;;;4969169;28;20020;-88
2022/05/30 09:28:43;;;;;;;2.80;1.38;;;19.70;95.40;;;;;;4942055;29;20066;-88
2022/05/30 09:31:46;;;;;;;4.13;1.83;;;20.10;94.40;;;;;;4942048;29;20109;-89
2022/05/30 09:34:46;;;;;;;3.80;1.30;;;20.40;94.20;;;;;;4941468;29;20029;-89
2022/05/30 09:37:40;;;;;;;2.20;1.30;;;20.30;93.60;;;;;;4952745;29;20031;-87
2022/05/30 09:40:07;;;;;;;5.53;1.50;;;19.60;93.70;;;;;;4951544;29;20044;-88
2022/05/30 09:42:37;;;;;;;2.80;1.40;;;19.80;94.40;;;;;;4949973;29;20032;-90
2022/05/30 09:45:26;;;;;;;2.92;1.45;;;20.00;93.60;;;;;;4950314;29;20028;-90
2022/05/30 09:48:11;;;;;;;1.98;1.00;;;20.60;92.50;;;;;;4953013;29;20143;-91
2022/05/30 09:50:52;;;;;;;4.60;1.30;;;21.30;92.00;;;;;;4946572;29;20060;-88
2022/05/30 09:53:38;;;;;;;1.95;1.17;;;22.10;91.00;;;;;;4944219;29;20027;-89
2022/05/30 09:56:04;;;;;;;3.10;1.52;;;23.00;87.30;;;;;;4946188;29;20031;-86
2022/05/30 09:58:45;;;;;;;6.47;2.08;;;23.10;86.70;;;;;;4943705;29;20016;-87
2022/05/30 10:01:30;;;;;;;5.93;2.78;;;22.70;87.50;;;;;;4944761;29;20036;-87
2022/05/30 10:04:14;;;;;;;4.20;1.50;;;22.60;89.40;;;;;;4950411;29;20028;-87
2022/05/30 10:07:14;;;;;;;3.65;1.70;;;22.40;88.60;;;;;;4932501;29;20028;-87
2022/05/30 10:09:58;;;;;;;3.83;1.90;;;23.00;84.90;;;;;;4933162;29;20044;-85
2022/05/30 10:12:39;;;;;;;3.78;1.60;;;23.00;85.00;;;;;;4946204;29;20044;-86
2022/05/30 10:15:23;;;;;;;2.17;1.52;;;22.70;84.90;;;;;;4950117;29;20055;-86
2022/05/30 10:17:51;;;;;;;;;;;23.10;81.00;;;;;;4932570;29;20015;-87
2022/05/30 10:20:36;;;;;;;2.17;1.30;;;23.80;79.10;;;;;;4931434;29;19915;-87
2022/05/30 10:31:30;;;;;;;3.95;1.95;;;26.20;73.80;;;;;;4922057;29;20028;-90
2022/05/30 10:34:18;;;;;;;3.33;1.80;;;29.30;68.70;;;;;;4926462;29;20032;-88
2022/05/30 10:37:03;;;;;;;3.42;1.40;;;31.50;63.20;;;;;;4924638;29;20028;-86
2022/05/30 10:39:47;;;;;;;2.60;1.50;;;32.00;59.10;;;;;;4926461;29;20032;-85
2022/05/30 10:42:23;;;;;;;2.05;1.25;;;32.00;57.30;;;;;;4924847;29;20029;-88
2022/05/30 10:45:01;;;;;;;2.60;1.73;;;32.30;56.80;;;;;;4927243;29;20027;-86
2022/05/30 10:47:48;;;;;;;3.88;1.15;;;33.10;55.30;;;;;;4926730;29;20110;-87
2022/05/30 10:50:43;;;;;;;2.47;1.70;;;34.10;54.10;;;;;;4939114;29;20040;-86
2022/05/30 10:53:27;;;;;;;3.45;3.00;;;34.50;52.60;;;;;;4925013;29;20035;-86
2022/05/30 10:56:33;;;;;;;2.05;1.25;;;35.40;49.80;;;;;;4921943;29;20519;-86
2022/05/30 10:59:12;;;;;;;2.28;1.05;;;35.70;49.30;;;;;;4928665;29;20036;-86
2022/05/30 11:01:55;;;;;;;1.48;1.00;;;35.40;48.40;;;;;;4928114;29;20032;-85
2022/05/30 11:04:24;;;;;;;3.53;1.30;;;36.10;48.00;;;;;;4924950;29;20037;-85
2022/05/30 11:06:54;;;;;;;2.63;1.30;;;36.90;46.20;;;;;;4928169;29;20013;-87
2022/05/30 11:09:28;;;;;;;3.00;1.40;;;37.80;46.00;;;;;;4943808;29;20067;-86
2022/05/30 11:12:04;;;;;;;2.13;1.13;;;37.40;44.60;;;;;;4932800;29;20083;-87
2022/05/30 11:14:58;;;;;;;2.60;1.50;;;36.70;44.50;;;;;;4936828;29;20027;-84
2022/05/30 11:18:02;;;;;;;2.00;1.00;;;35.00;45.50;;;;;;4912024;29;20517;-85
2022/05/30 11:20:58;;;;;;;1.63;1.30;;;33.70;46.00;;;;;;4938652;29;20052;-85
2022/05/30 11:23:25;;;;;;;1.60;1.20;;;33.80;46.40;;;;;;4946594;29;20032;-88
2022/05/30 11:26:11;;;;;;;2.50;1.40;;;34.10;45.60;;;;;;4927132;29;20035;-89
2022/05/30 11:28:58;;;;;;;2.08;1.27;;;33.70;45.70;;;;;;4925302;29;20463;-87
2022/05/30 11:31:41;;;;;;;2.03;1.20;;;34.10;45.50;;;;;;4926218;29;20475;-88
2022/05/30 11:34:18;;;;;;;3.38;1.45;;;33.50;45.30;;;;;;4925132;29;20030;-87
2022/05/30 11:37:03;;;;;;;1.95;1.30;;;31.30;47.20;;;;;;4927277;29;20087;-87
2022/05/30 11:39:45;;;;;;;2.47;1.27;;;29.40;48.10;;;;;;4930496;29;20091;-87
2022/05/30 11:42:14;;;;;;;2.55;1.48;;;28.10;50.20;;;;;;4929273;29;20040;-88
2022/05/30 11:44:45;;;;;;;3.35;1.40;;;28.20;51.00;;;;;;4933873;29;20047;-88
2022/05/30 11:47:20;;;;;;;3.35;1.20;;;29.20;50.10;;;;;;4936802;29;20051;-88
2022/05/30 11:50:02;;;;;;;2.40;1.30;;;29.90;49.00;;;;;;4936609;29;20074;-88
2022/05/30 11:53:00;;;;;;;3.60;1.30;;;29.40;48.60;;;;;;4934368;29;20044;-90
2022/05/30 11:55:36;;;;;;;5.82;1.65;;;27.90;52.20;;;;;;4935883;29;20044;-88
2022/05/30 11:58:13;;;;;;;3.95;1.40;;;27.70;51.00;;;;;;4936508;29;20032;-88
2022/05/30 12:00:43;;;;;;;8.35;1.85;;;29.00;50.80;;;;;;4934561;29;20044;-88
2022/05/30 12:03:43;;;;;;;4.15;1.67;;;30.20;49.70;;;;;;4942330;29;20114;-87
2022/05/30 12:06:23;;;;;;;5.07;1.45;;;30.90;47.90;;;;;;4940640;29;20043;-84
2022/05/30 12:09:12;;;;;;;5.40;1.60;;;30.40;47.80;;;;;;4942355;29;20040;-85
2022/05/30 12:11:56;;;;;;;6.20;1.52;;;29.20;48.50;;;;;;4934750;29;20056;-84
2022/05/30 12:14:56;;;;;;;7.35;1.95;;;27.90;49.60;;;;;;4942535;29;20020;-86
2022/05/30 12:24:01;;;;;;;5.22;2.00;;;28.00;50.50;;;;;;4941061;29;20024;-84
2022/05/30 12:27:00;;;;;;;5.10;1.65;;;28.60;50.00;;;;;;4936701;29;20024;-84
2022/05/30 12:29:38;;;;;;;7.47;2.22;;;29.60;49.10;;;;;;4938876;29;20020;-84
2022/05/30 12:32:29;;;;;;;4.40;1.50;;;30.70;47.20;;;;;;4937668;29;20036;-87
2022/05/30 12:35:03;;;;;;;5.18;2.38;;;30.10;47.80;;;;;;4932235;29;20083;-89
2022/05/30 12:37:44;;;;;;;3.92;1.90;;;29.10;49.00;;;;;;4934483;29;20107;-88
2022/05/30 12:40:24;;;;;;;6.45;1.90;;;29.60;49.00;;;;;;4917721;29;20024;-85
2022/05/30 12:43:27;;;;;;;4.68;1.92;;;30.20;48.60;;;;;;4938102;29;20024;-85
2022/05/30 12:45:56;;;;;;;2.55;1.65;;;29.80;49.00;;;;;;4952071;28;20135;-86
2022/05/30 12:48:27;;;;;;;3.58;1.88;;;29.90;49.50;;;;;;4937195;29;20052;-85
2022/05/30 12:50:58;;;;;;;7.38;1.45;;;31.00;49.20;;;;;;4942521;29;20036;-85
2022/05/30 12:53:45;;;;;;;5.18;1.83;;;31.10;48.70;;;;;;4941903;29;20035;-86
2022/05/30 12:56:35;;;;;;;3.45;2.25;;;31.40;48.60;;;;;;4957563;29;20039;-86
2022/05/30 12:59:06;;;;;;;7.63;3.30;;;30.80;48.10;;;;;;4957420;29;20076;-86
2022/05/30 13:01:44;;;;;;;7.90;2.35;;;31.50;48.30;;;;;;4941815;29;20024;-86
2022/05/30 13:04:16;;;;;;;2.83;1.75;;;31.50;48.30;;;;;;4942185;29;20031;-86
2022/05/30 13:07:08;;;;;;;4.22;2.08;;;30.70;48.40;;;;;;4940769;29;20032;-87
2022/05/30 13:09:46;;;;;;;3.75;1.95;;;31.90;49.10;;;;;;4940559;29;20028;-87
2022/05/30 13:12:14;;;;;;;3.28;1.80;;;32.40;49.30;;;;;;4940681;29;20020;-87
2022/05/30 13:14:49;;;;;;;8.77;2.00;;;32.20;49.60;;;;;;4939791;29;20024;-88
2022/05/30 13:17:23;;;;;;;3.17;1.67;;;32.70;49.20;;;;;;4939139;29;20038;-87
2022/05/30 13:19:58;;;;;;;3.15;1.73;;;33.10;48.70;;;;;;4936523;29;20050;-89
2022/05/30 13:22:36;;;;;;;3.55;1.80;;;32.70;49.30;;;;;;4980576;23;20042;-84
2022/05/30 13:25:06;;;;;;;5.18;2.20;;;31.40;49.90;;;;;;4996528;28;20026;-84
2022/05/30 13:27:31;;;;;;;6.82;1.90;;;30.00;51.30;;;;;;4997257;28;20038;-87
2022/05/30 13:30:13;;;;;;;5.50;2.10;;;30.10;51.40;;;;;;4995756;28;20145;-85
2022/05/30 13:32:39;;;;;;;10.80;1.70;;;30.50;51.10;;;;;;4991200;28;20035;-82
2022/05/30 13:35:10;;;;;;;2.70;1.88;;;30.70;50.20;;;;;;4987545;28;20054;-83
2022/05/30 13:37:42;;;;;;;6.68;2.05;;;28.90;51.10;;;;;;4985286;28;20065;-82
2022/05/30 13:40:11;;;;;;;4.85;1.90;;;27.20;53.10;;;;;;4983445;28;20062;-85
2022/05/30 13:42:49;;;;;;;5.30;1.95;;;26.20;55.00;;;;;;4990324;28;20039;-83
2022/05/30 13:45:21;;;;;;;9.75;2.28;;;25.60;55.90;;;;;;4994497;28;20043;-84
2022/05/30 13:47:46;;;;;;;7.30;3.10;;;24.80;56.70;;;;;;4991949;28;20149;-83
2022/05/30 13:50:15;;;;;;;6.97;2.65;;;23.80;58.50;;;;;;4990983;28;20030;-83
2022/05/30 13:52:41;;;;;;;5.45;1.90;;;23.30;59.90;;;;;;4991180;28;20011;-84
2022/05/30 13:55:11;;;;;;;4.97;2.13;;;23.00;60.60;;;;;;4985206;28;20033;-83
2022/05/30 13:57:38;;;;;;;8.88;2.15;;;22.90;60.90;;;;;;4982546;28;20092;-84
2022/05/30 14:00:15;;;;;;;3.38;1.50;;;23.00;60.80;;;;;;4981668;28;20117;-84